sensor_id;sensor_type;location;lat;lon;timestamp;P1;durP1;ratioP1;P2;durP2;ratioP2
22983;SDS011;11658;48.908;9.140;2022-09-25T05:02:42;10.47;;;9.30;;
22983;SDS011;11658;48.908;9.140;2022-09-25T05:05:08;10.57;;;9.20;;
22983;SDS011;11658;48.908;9.140;2022-09-25T05:07:34;10.70;;;9.70;;
22983;SDS011;11658;48.908;9.140;2022-09-25T05:10:00;10.73;;;9.60;;
22983;SDS011;11658;48.908;9.140;2022-09-25T05:12:25;10.07;;;9.07;;
22983;SDS011;11658;48.908;9.140;2022-09-25T05:17:20;10.20;;;9.30;;
22983;SDS011;11658;48.908;9.140;2022-09-25T05:19:45;10.57;;;9.57;;
22983;SDS011;11658;48.908;9.140;2022-09-25T05:22:11;12.20;;;10.77;;
22983;SDS011;11658;48.908;9.140;2022-09-25T05:24:36;11.37;;;10.17;;
22983;SDS011;11658;48.908;9.140;2022-09-25T05:27:02;9.70;;;8.80;;
22983;SDS011;11658;48.908;9.140;2022-09-25T05:29:28;11.17;;;10.07;;
22983;SDS011;11658;48.908;9.140;2022-09-25T05:31:54;12.27;;;11.00;;
22983;SDS011;11658;48.908;9.140;2022-09-25T05:34:20;12.57;;;11.27;;
22983;SDS011;11658;48.908;9.140;2022-09-25T05:36:46;14.40;;;11.83;;
22983;SDS011;11658;48.908;9.140;2022-09-25T05:39:11;12.30;;;11.10;;
22983;SDS011;11658;48.908;9.140;2022-09-25T05:41:37;12.53;;;10.40;;
22983;SDS011;11658;48.908;9.140;2022-09-25T05:44:03;12.57;;;10.77;;
22983;SDS011;11658;48.908;9.140;2022-09-25T05:46:34;12.60;;;11.40;;
22983;SDS011;11658;48.908;9.140;2022-09-25T05:49:00;12.37;;;11.07;;
22983;SDS011;11658;48.908;9.140;2022-09-25T05:51:26;13.53;;;12.10;;
22983;SDS011;11658;48.908;9.140;2022-09-25T05:53:52;13.20;;;11.90;;
22983;SDS011;11658;48.908;9.140;2022-09-25T05:56:18;13.10;;;11.47;;
22983;SDS011;11658;48.908;9.140;2022-09-25T05:58:43;13.37;;;11.97;;
22983;SDS011;11658;48.908;9.140;2022-09-25T06:01:09;13.40;;;12.00;;
22983;SDS011;11658;48.908;9.140;2022-09-25T06:03:35;12.87;;;11.03;;
22983;SDS011;11658;48.908;9.140;2022-09-25T06:06:01;13.07;;;11.57;;
22983;SDS011;11658;48.908;9.140;2022-09-25T06:08:27;12.90;;;11.00;;
22983;SDS011;11658;48.908;9.140;2022-09-25T06:10:56;12.20;;;10.93;;
22983;SDS011;11658;48.908;9.140;2022-09-25T06:13:23;12.20;;;11.03;;
22983;SDS011;11658;48.908;9.140;2022-09-25T06:15:52;11.87;;;10.67;;
22983;SDS011;11658;48.908;9.140;2022-09-25T06:18:18;11.93;;;10.73;;
22983;SDS011;11658;48.908;9.140;2022-09-25T06:20:45;12.40;;;10.97;;
22983;SDS011;11658;48.908;9.140;2022-09-25T06:23:12;12.00;;;10.80;;
22983;SDS011;11658;48.908;9.140;2022-09-25T06:25:38;11.60;;;10.17;;
22983;SDS011;11658;48.908;9.140;2022-09-25T06:28:04;13.27;;;11.07;;
22983;SDS011;11658;48.908;9.140;2022-09-25T06:30:31;12.47;;;10.47;;
22983;SDS011;11658;48.908;9.140;2022-09-25T06:32:59;12.73;;;10.57;;
22983;SDS011;11658;48.908;9.140;2022-09-25T06:35:34;11.23;;;10.00;;
22983;SDS011;11658;48.908;9.140;2022-09-25T06:38:01;13.90;;;11.47;;
22983;SDS011;11658;48.908;9.140;2022-09-25T06:40:28;11.70;;;10.50;;
22983;SDS011;11658;48.908;9.140;2022-09-25T06:42:59;12.23;;;11.03;;
22983;SDS011;11658;48.908;9.140;2022-09-25T06:45:27;11.13;;;10.03;;
22983;SDS011;11658;48.908;9.140;2022-09-25T06:47:58;12.40;;;10.03;;
22983;SDS011;11658;48.908;9.140;2022-09-25T06:50:25;11.20;;;10.00;;
22983;SDS011;11658;48.908;9.140;2022-09-25T06:52:55;11.57;;;9.97;;
22983;SDS011;11658;48.908;9.140;2022-09-25T06:55:25;11.53;;;10.33;;
22983;SDS011;11658;48.908;9.140;2022-09-25T06:57:51;11.73;;;10.53;;
22983;SDS011;11658;48.908;9.140;2022-09-25T07:00:17;12.73;;;11.47;;
22983;SDS011;11658;48.908;9.140;2022-09-25T07:02:43;11.87;;;10.67;;
22983;SDS011;11658;48.908;9.140;2022-09-25T07:05:27;11.30;;;10.17;;
22983;SDS011;11658;48.908;9.140;2022-09-25T07:07:53;10.93;;;9.83;;
22983;SDS011;11658;48.908;9.140;2022-09-25T07:10:19;10.67;;;9.67;;
22983;SDS011;11658;48.908;9.140;2022-09-25T07:12:45;10.90;;;9.80;;
22983;SDS011;11658;48.908;9.140;2022-09-25T07:15:11;11.57;;;10.37;;
22983;SDS011;11658;48.908;9.140;2022-09-25T07:17:41;11.37;;;10.27;;
22983;SDS011;11658;48.908;9.140;2022-09-25T07:20:07;13.13;;;10.93;;
22983;SDS011;11658;48.908;9.140;2022-09-25T07:22:36;11.60;;;10.50;;
22983;SDS011;11658;48.908;9.140;2022-09-25T07:25:02;11.10;;;9.93;;
22983;SDS011;11658;48.908;9.140;2022-09-25T07:27:29;9.33;;;8.53;;
22983;SDS011;11658;48.908;9.140;2022-09-25T07:29:54;10.20;;;9.20;;
22983;SDS011;11658;48.908;9.140;2022-09-25T07:32:20;9.97;;;8.43;;
22983;SDS011;11658;48.908;9.140;2022-09-25T07:34:46;9.20;;;8.30;;
22983;SDS011;11658;48.908;9.140;2022-09-25T07:37:15;11.00;;;9.03;;
22983;SDS011;11658;48.908;9.140;2022-09-25T07:39:41;9.33;;;8.43;;
22983;SDS011;11658;48.908;9.140;2022-09-25T07:42:07;8.30;;;7.50;;
22983;SDS011;11658;48.908;9.140;2022-09-25T07:44:33;8.00;;;7.20;;
22983;SDS011;11658;48.908;9.140;2022-09-25T07:46:59;7.53;;;6.73;;
22983;SDS011;11658;48.908;9.140;2022-09-25T07:49:25;7.00;;;6.30;;
22983;SDS011;11658;48.908;9.140;2022-09-25T07:51:51;9.37;;;6.37;;
22983;SDS011;11658;48.908;9.140;2022-09-25T07:54:17;6.20;;;5.70;;
22983;SDS011;11658;48.908;9.140;2022-09-25T07:56:42;6.90;;;6.20;;
22983;SDS011;11658;48.908;9.140;2022-09-25T07:59:08;6.63;;;6.03;;
22983;SDS011;11658;48.908;9.140;2022-09-25T08:01:34;8.60;;;6.20;;
22983;SDS011;11658;48.908;9.140;2022-09-25T08:04:00;6.93;;;6.33;;
22983;SDS011;11658;48.908;9.140;2022-09-25T08:06:25;7.13;;;6.50;;
22983;SDS011;11658;48.908;9.140;2022-09-25T08:08:51;7.63;;;6.70;;
22983;SDS011;11658;48.908;9.140;2022-09-25T08:11:16;7.70;;;6.90;;
22983;SDS011;11658;48.908;9.140;2022-09-25T08:13:42;7.93;;;6.87;;
22983;SDS011;11658;48.908;9.140;2022-09-25T08:16:10;8.23;;;7.27;;
22983;SDS011;11658;48.908;9.140;2022-09-25T08:18:41;8.87;;;7.90;;
22983;SDS011;11658;48.908;9.140;2022-09-25T08:21:08;7.90;;;7.10;;
22983;SDS011;11658;48.908;9.140;2022-09-25T08:23:34;8.43;;;7.60;;
22983;SDS011;11658;48.908;9.140;2022-09-25T08:26:00;7.90;;;7.10;;
22983;SDS011;11658;48.908;9.140;2022-09-25T08:28:26;8.53;;;7.63;;
22983;SDS011;11658;48.908;9.140;2022-09-25T08:30:53;8.23;;;7.43;;
22983;SDS011;11658;48.908;9.140;2022-09-25T08:33:18;9.43;;;8.40;;
22983;SDS011;11658;48.908;9.140;2022-09-25T08:35:53;8.90;;;8.07;;
22983;SDS011;11658;48.908;9.140;2022-09-25T08:38:23;8.97;;;8.07;;
22983;SDS011;11658;48.908;9.140;2022-09-25T08:43:37;9.47;;;8.23;;
22983;SDS011;11658;48.908;9.140;2022-09-25T08:46:19;9.50;;;8.50;;
22983;SDS011;11658;48.908;9.140;2022-09-25T08:49:18;10.03;;;8.80;;
22983;SDS011;11658;48.908;9.140;2022-09-25T08:51:49;9.83;;;8.93;;
22983;SDS011;11658;48.908;9.140;2022-09-25T08:54:19;9.93;;;8.93;;
22983;SDS011;11658;48.908;9.140;2022-09-25T08:56:50;9.53;;;8.53;;
22983;SDS011;11658;48.908;9.140;2022-09-25T08:59:26;10.80;;;8.97;;
22983;SDS011;11658;48.908;9.140;2022-09-25T09:02:01;10.17;;;9.17;;
22983;SDS011;11658;48.908;9.140;2022-09-25T09:07:11;9.93;;;9.00;;
22983;SDS011;11658;48.908;9.140;2022-09-25T09:09:47;9.83;;;8.93;;
22983;SDS011;11658;48.908;9.140;2022-09-25T09:12:20;9.87;;;8.87;;
22983;SDS011;11658;48.908;9.140;2022-09-25T09:14:54;11.07;;;9.80;;
22983;SDS011;11658;48.908;9.140;2022-09-25T09:17:30;10.53;;;9.47;;
22983;SDS011;11658;48.908;9.140;2022-09-25T09:20:13;11.23;;;9.63;;
22983;SDS011;11658;48.908;9.140;2022-09-25T09:22:45;10.20;;;9.10;;
22983;SDS011;11658;48.908;9.140;2022-09-25T09:25:22;12.63;;;9.70;;
22983;SDS011;11658;48.908;9.140;2022-09-25T09:27:52;13.83;;;10.33;;
22983;SDS011;11658;48.908;9.140;2022-09-25T09:30:30;11.07;;;9.90;;
22983;SDS011;11658;48.908;9.140;2022-09-25T09:44:06;11.90;;;10.00;;
22983;SDS011;11658;48.908;9.140;2022-09-25T09:52:20;14.47;;;10.30;;
22983;SDS011;11658;48.908;9.140;2022-09-25T09:54:51;10.73;;;9.73;;
22983;SDS011;11658;48.908;9.140;2022-09-25T09:57:23;11.10;;;10.00;;
22983;SDS011;11658;48.908;9.140;2022-09-25T09:59:52;10.80;;;9.77;;
22983;SDS011;11658;48.908;9.140;2022-09-25T10:02:31;11.23;;;10.23;;
22983;SDS011;11658;48.908;9.140;2022-09-25T10:05:05;11.80;;;10.60;;
22983;SDS011;11658;48.908;9.140;2022-09-25T10:07:39;11.83;;;10.33;;
22983;SDS011;11658;48.908;9.140;2022-09-25T10:10:16;11.87;;;10.67;;
22983;SDS011;11658;48.908;9.140;2022-09-25T10:12:46;13.97;;;10.40;;
22983;SDS011;11658;48.908;9.140;2022-09-25T10:17:59;12.10;;;10.73;;
22983;SDS011;11658;48.908;9.140;2022-09-25T10:20:29;11.03;;;10.00;;
22983;SDS011;11658;48.908;9.140;2022-09-25T10:23:05;11.73;;;10.20;;
22983;SDS011;11658;48.908;9.140;2022-09-25T10:25:57;11.17;;;9.47;;
22983;SDS011;11658;48.908;9.140;2022-09-25T10:28:33;13.80;;;10.30;;
22983;SDS011;11658;48.908;9.140;2022-09-25T10:31:00;11.10;;;9.77;;
22983;SDS011;11658;48.908;9.140;2022-09-25T10:33:30;11.63;;;10.30;;
22983;SDS011;11658;48.908;9.140;2022-09-25T10:35:56;11.10;;;10.00;;
22983;SDS011;11658;48.908;9.140;2022-09-25T10:41:15;10.77;;;9.70;;
22983;SDS011;11658;48.908;9.140;2022-09-25T10:49:31;10.67;;;9.57;;
22983;SDS011;11658;48.908;9.140;2022-09-25T10:52:43;11.50;;;10.00;;
22983;SDS011;11658;48.908;9.140;2022-09-25T11:00:27;11.17;;;9.27;;
22983;SDS011;11658;48.908;9.140;2022-09-25T11:02:54;11.10;;;9.77;;
22983;SDS011;11658;48.908;9.140;2022-09-25T11:05:26;10.60;;;9.57;;
22983;SDS011;11658;48.908;9.140;2022-09-25T11:07:58;10.60;;;9.60;;
22983;SDS011;11658;48.908;9.140;2022-09-25T11:10:27;10.97;;;9.23;;
22983;SDS011;11658;48.908;9.140;2022-09-25T11:13:07;11.07;;;9.97;;
22983;SDS011;11658;48.908;9.140;2022-09-25T11:15:39;11.23;;;9.70;;
22983;SDS011;11658;48.908;9.140;2022-09-25T11:21:01;11.43;;;10.23;;
22983;SDS011;11658;48.908;9.140;2022-09-25T11:23:32;11.50;;;10.33;;
22983;SDS011;11658;48.908;9.140;2022-09-25T11:28:40;11.67;;;10.47;;
22983;SDS011;11658;48.908;9.140;2022-09-25T11:31:20;11.43;;;10.07;;
22983;SDS011;11658;48.908;9.140;2022-09-25T11:34:10;13.47;;;10.90;;
22983;SDS011;11658;48.908;9.140;2022-09-25T11:39:56;12.00;;;9.50;;
22983;SDS011;11658;48.908;9.140;2022-09-25T11:43:05;11.20;;;9.53;;
22983;SDS011;11658;48.908;9.140;2022-09-25T11:45:36;11.53;;;9.17;;
22983;SDS011;11658;48.908;9.140;2022-09-25T11:48:53;10.23;;;8.90;;
22983;SDS011;11658;48.908;9.140;2022-09-25T11:54:11;9.93;;;8.93;;
22983;SDS011;11658;48.908;9.140;2022-09-25T11:59:41;10.00;;;9.00;;
22983;SDS011;11658;48.908;9.140;2022-09-25T12:05:37;9.43;;;8.30;;
22983;SDS011;11658;48.908;9.140;2022-09-25T12:14:02;7.03;;;6.40;;
22983;SDS011;11658;48.908;9.140;2022-09-25T12:16:49;7.00;;;6.30;;
22983;SDS011;11658;48.908;9.140;2022-09-25T12:19:35;5.97;;;4.90;;
22983;SDS011;11658;48.908;9.140;2022-09-25T12:31:05;4.97;;;4.57;;
22983;SDS011;11658;48.908;9.140;2022-09-25T12:36:35;3.90;;;3.50;;
22983;SDS011;11658;48.908;9.140;2022-09-25T12:42:02;4.83;;;4.37;;
22983;SDS011;11658;48.908;9.140;2022-09-25T12:44:48;4.43;;;3.57;;
22983;SDS011;11658;48.908;9.140;2022-09-25T12:47:25;4.27;;;3.70;;
22983;SDS011;11658;48.908;9.140;2022-09-25T12:50:17;4.60;;;3.53;;
22983;SDS011;11658;48.908;9.140;2022-09-25T13:00:42;4.83;;;4.43;;
22983;SDS011;11658;48.908;9.140;2022-09-25T13:03:11;4.87;;;4.47;;
22983;SDS011;11658;48.908;9.140;2022-09-25T13:08:42;5.53;;;5.03;;
22983;SDS011;11658;48.908;9.140;2022-09-25T13:11:37;5.63;;;4.80;;
22983;SDS011;11658;48.908;9.140;2022-09-25T13:14:00;5.93;;;4.53;;
22983;SDS011;11658;48.908;9.140;2022-09-25T13:16:28;5.50;;;5.00;;
22983;SDS011;11658;48.908;9.140;2022-09-25T13:21:49;5.47;;;4.87;;
22983;SDS011;11658;48.908;9.140;2022-09-25T13:24:15;5.33;;;4.83;;
22983;SDS011;11658;48.908;9.140;2022-09-25T13:26:46;5.40;;;4.90;;
22983;SDS011;11658;48.908;9.140;2022-09-25T13:29:35;6.87;;;4.63;;
22983;SDS011;11658;48.908;9.140;2022-09-25T13:32:18;5.10;;;4.60;;
22983;SDS011;11658;48.908;9.140;2022-09-25T13:34:55;4.63;;;4.20;;
22983;SDS011;11658;48.908;9.140;2022-09-25T13:37:35;6.43;;;4.40;;
22983;SDS011;11658;48.908;9.140;2022-09-25T13:40:18;5.63;;;4.87;;
22983;SDS011;11658;48.908;9.140;2022-09-25T13:43:23;4.60;;;4.20;;
22983;SDS011;11658;48.908;9.140;2022-09-25T13:48:39;9.13;;;7.47;;
22983;SDS011;11658;48.908;9.140;2022-09-25T13:53:56;5.07;;;4.57;;
22983;SDS011;11658;48.908;9.140;2022-09-25T14:01:40;4.23;;;3.83;;
22983;SDS011;11658;48.908;9.140;2022-09-25T14:04:16;4.03;;;3.63;;
22983;SDS011;11658;48.908;9.140;2022-09-25T14:06:53;4.33;;;3.30;;
22983;SDS011;11658;48.908;9.140;2022-09-25T14:09:31;3.50;;;3.20;;
22983;SDS011;11658;48.908;9.140;2022-09-25T14:14:43;2.50;;;2.27;;
22983;SDS011;11658;48.908;9.140;2022-09-25T14:17:17;2.17;;;2.00;;
22983;SDS011;11658;48.908;9.140;2022-09-25T14:19:46;2.40;;;2.23;;
22983;SDS011;11658;48.908;9.140;2022-09-25T14:22:20;2.30;;;2.10;;
22983;SDS011;11658;48.908;9.140;2022-09-25T14:24:53;2.60;;;2.40;;
22983;SDS011;11658;48.908;9.140;2022-09-25T14:27:20;2.80;;;2.60;;
22983;SDS011;11658;48.908;9.140;2022-09-25T14:29:49;3.07;;;2.77;;
22983;SDS011;11658;48.908;9.140;2022-09-25T14:40:24;4.33;;;3.93;;
22983;SDS011;11658;48.908;9.140;2022-09-25T14:46:04;7.00;;;5.73;;
22983;SDS011;11658;48.908;9.140;2022-09-25T14:48:37;5.97;;;5.37;;
22983;SDS011;11658;48.908;9.140;2022-09-25T14:51:07;4.20;;;3.50;;
22983;SDS011;11658;48.908;9.140;2022-09-25T14:53:37;3.30;;;3.00;;
22983;SDS011;11658;48.908;9.140;2022-09-25T14:56:06;3.50;;;3.20;;
22983;SDS011;11658;48.908;9.140;2022-09-25T14:58:36;3.50;;;3.20;;
22983;SDS011;11658;48.908;9.140;2022-09-25T15:03:50;3.50;;;3.20;;
22983;SDS011;11658;48.908;9.140;2022-09-25T15:06:30;3.50;;;3.10;;
22983;SDS011;11658;48.908;9.140;2022-09-25T15:08:58;3.20;;;2.90;;
22983;SDS011;11658;48.908;9.140;2022-09-25T15:11:27;3.30;;;2.70;;
22983;SDS011;11658;48.908;9.140;2022-09-25T15:14:24;3.00;;;2.73;;
22983;SDS011;11658;48.908;9.140;2022-09-25T15:16:49;2.90;;;2.70;;
22983;SDS011;11658;48.908;9.140;2022-09-25T15:19:40;2.90;;;2.60;;
22983;SDS011;11658;48.908;9.140;2022-09-25T15:22:10;2.47;;;2.27;;
22983;SDS011;11658;48.908;9.140;2022-09-25T15:24:43;4.20;;;2.87;;
22983;SDS011;11658;48.908;9.140;2022-09-25T15:27:13;2.33;;;2.23;;
22983;SDS011;11658;48.908;9.140;2022-09-25T15:29:41;3.17;;;2.60;;
22983;SDS011;11658;48.908;9.140;2022-09-25T15:32:22;3.00;;;2.60;;
22983;SDS011;11658;48.908;9.140;2022-09-25T15:37:45;2.50;;;2.30;;
22983;SDS011;11658;48.908;9.140;2022-09-25T15:40:25;2.50;;;2.30;;
22983;SDS011;11658;48.908;9.140;2022-09-25T15:42:54;2.50;;;2.20;;
22983;SDS011;11658;48.908;9.140;2022-09-25T15:48:08;2.10;;;2.00;;
22983;SDS011;11658;48.908;9.140;2022-09-25T15:50:34;2.27;;;2.00;;
22983;SDS011;11658;48.908;9.140;2022-09-25T15:53:00;2.20;;;2.00;;
22983;SDS011;11658;48.908;9.140;2022-09-25T15:55:27;1.60;;;1.50;;
22983;SDS011;11658;48.908;9.140;2022-09-25T15:57:55;1.80;;;1.70;;
22983;SDS011;11658;48.908;9.140;2022-09-25T16:00:30;2.00;;;1.80;;
22983;SDS011;11658;48.908;9.140;2022-09-25T16:03:16;2.30;;;2.10;;
22983;SDS011;11658;48.908;9.140;2022-09-25T16:06:04;2.80;;;2.60;;
22983;SDS011;11658;48.908;9.140;2022-09-25T16:13:48;8.10;;;7.30;;
22983;SDS011;11658;48.908;9.140;2022-09-25T16:16:25;2.63;;;2.43;;
22983;SDS011;11658;48.908;9.140;2022-09-25T16:18:59;3.60;;;3.30;;
22983;SDS011;11658;48.908;9.140;2022-09-25T16:21:45;5.93;;;5.43;;
22983;SDS011;11658;48.908;9.140;2022-09-25T16:24:16;3.53;;;3.23;;
22983;SDS011;11658;48.908;9.140;2022-09-25T16:26:44;3.50;;;3.20;;
22983;SDS011;11658;48.908;9.140;2022-09-25T16:29:22;3.40;;;3.10;;
22983;SDS011;11658;48.908;9.140;2022-09-25T16:31:50;3.80;;;3.50;;
22983;SDS011;11658;48.908;9.140;2022-09-25T16:34:25;4.60;;;3.30;;
22983;SDS011;11658;48.908;9.140;2022-09-25T16:36:53;3.33;;;3.03;;
22983;SDS011;11658;48.908;9.140;2022-09-25T16:42:10;4.03;;;3.00;;
22983;SDS011;11658;48.908;9.140;2022-09-25T16:44:46;5.60;;;4.87;;
22983;SDS011;11658;48.908;9.140;2022-09-25T16:49:45;2.80;;;2.60;;
22983;SDS011;11658;48.908;9.140;2022-09-25T16:52:14;3.03;;;2.57;;
22983;SDS011;11658;48.908;9.140;2022-09-25T16:54:44;2.60;;;2.40;;
22983;SDS011;11658;48.908;9.140;2022-09-25T16:57:11;2.50;;;2.30;;
22983;SDS011;11658;48.908;9.140;2022-09-25T16:59:41;2.60;;;2.40;;
22983;SDS011;11658;48.908;9.140;2022-09-25T17:05:11;3.30;;;3.00;;
22983;SDS011;11658;48.908;9.140;2022-09-25T17:07:41;3.30;;;2.87;;
22983;SDS011;11658;48.908;9.140;2022-09-25T17:10:12;3.07;;;2.80;;
22983;SDS011;11658;48.908;9.140;2022-09-25T17:12:40;3.33;;;3.03;;
22983;SDS011;11658;48.908;9.140;2022-09-25T17:15:14;3.50;;;2.97;;
22983;SDS011;11658;48.908;9.140;2022-09-25T17:17:47;4.47;;;4.07;;
22983;SDS011;11658;48.908;9.140;2022-09-25T17:20:17;8.57;;;7.77;;
22983;SDS011;11658;48.908;9.140;2022-09-25T17:22:43;7.40;;;6.80;;
22983;SDS011;11658;48.908;9.140;2022-09-25T17:25:15;7.80;;;7.10;;
22983;SDS011;11658;48.908;9.140;2022-09-25T17:27:46;8.37;;;7.67;;
22983;SDS011;11658;48.908;9.140;2022-09-25T17:30:11;7.17;;;6.10;;
22983;SDS011;11658;48.908;9.140;2022-09-25T17:32:37;8.00;;;7.30;;
22983;SDS011;11658;48.908;9.140;2022-09-25T17:35:04;6.43;;;5.83;;
22983;SDS011;11658;48.908;9.140;2022-09-25T17:37:50;6.70;;;6.10;;
22983;SDS011;11658;48.908;9.140;2022-09-25T17:40:16;8.00;;;6.40;;
22983;SDS011;11658;48.908;9.140;2022-09-25T17:42:43;7.57;;;6.87;;
22983;SDS011;11658;48.908;9.140;2022-09-25T17:45:22;7.77;;;6.97;;
22983;SDS011;11658;48.908;9.140;2022-09-25T17:48:12;7.83;;;7.13;;
22983;SDS011;11658;48.908;9.140;2022-09-25T17:50:38;7.57;;;6.87;;
22983;SDS011;11658;48.908;9.140;2022-09-25T17:53:06;7.37;;;6.67;;
22983;SDS011;11658;48.908;9.140;2022-09-25T17:55:39;9.43;;;8.27;;
22983;SDS011;11658;48.908;9.140;2022-09-25T17:58:05;8.80;;;7.90;;
22983;SDS011;11658;48.908;9.140;2022-09-25T18:00:31;8.27;;;7.40;;
22983;SDS011;11658;48.908;9.140;2022-09-25T18:02:56;10.33;;;8.13;;
22983;SDS011;11658;48.908;9.140;2022-09-25T18:05:22;9.23;;;8.40;;
22983;SDS011;11658;48.908;9.140;2022-09-25T18:07:49;10.47;;;8.47;;
22983;SDS011;11658;48.908;9.140;2022-09-25T18:10:15;10.17;;;9.17;;
22983;SDS011;11658;48.908;9.140;2022-09-25T18:12:41;9.87;;;8.80;;
22983;SDS011;11658;48.908;9.140;2022-09-25T18:15:09;10.40;;;9.30;;
22983;SDS011;11658;48.908;9.140;2022-09-25T18:17:36;11.33;;;9.93;;
22983;SDS011;11658;48.908;9.140;2022-09-25T18:20:02;11.20;;;9.67;;
22983;SDS011;11658;48.908;9.140;2022-09-25T18:22:47;11.07;;;9.97;;
22983;SDS011;11658;48.908;9.140;2022-09-25T18:25:13;11.43;;;9.90;;
22983;SDS011;11658;48.908;9.140;2022-09-25T18:27:39;13.20;;;11.07;;
22983;SDS011;11658;48.908;9.140;2022-09-25T18:30:06;11.77;;;10.10;;
22983;SDS011;11658;48.908;9.140;2022-09-25T18:32:39;14.20;;;10.53;;
22983;SDS011;11658;48.908;9.140;2022-09-25T18:35:05;13.77;;;10.60;;
22983;SDS011;11658;48.908;9.140;2022-09-25T18:37:32;11.00;;;9.73;;
22983;SDS011;11658;48.908;9.140;2022-09-25T18:39:58;11.80;;;10.60;;
22983;SDS011;11658;48.908;9.140;2022-09-25T18:42:24;11.20;;;9.97;;
22983;SDS011;11658;48.908;9.140;2022-09-25T18:44:49;12.47;;;10.33;;
22983;SDS011;11658;48.908;9.140;2022-09-25T18:47:15;11.40;;;9.87;;
22983;SDS011;11658;48.908;9.140;2022-09-25T18:49:41;9.93;;;8.93;;
22983;SDS011;11658;48.908;9.140;2022-09-25T18:52:07;10.83;;;9.37;;
22983;SDS011;11658;48.908;9.140;2022-09-25T18:54:33;10.33;;;8.53;;
22983;SDS011;11658;48.908;9.140;2022-09-25T18:56:58;10.60;;;9.50;;
22983;SDS011;11658;48.908;9.140;2022-09-25T18:59:24;10.27;;;8.47;;
22983;SDS011;11658;48.908;9.140;2022-09-25T19:01:53;13.30;;;9.37;;
22983;SDS011;11658;48.908;9.140;2022-09-25T19:04:19;10.60;;;8.50;;
22983;SDS011;11658;48.908;9.140;2022-09-25T19:06:46;9.97;;;8.80;;
22983;SDS011;11658;48.908;9.140;2022-09-25T19:09:12;12.43;;;10.67;;
22983;SDS011;11658;48.908;9.140;2022-09-25T19:11:38;11.57;;;9.83;;
22983;SDS011;11658;48.908;9.140;2022-09-25T19:14:03;10.87;;;8.83;;
22983;SDS011;11658;48.908;9.140;2022-09-25T19:16:29;10.03;;;9.00;;
22983;SDS011;11658;48.908;9.140;2022-09-25T19:18:56;11.03;;;9.83;;
22983;SDS011;11658;48.908;9.140;2022-09-25T19:21:21;10.83;;;8.67;;
22983;SDS011;11658;48.908;9.140;2022-09-25T19:23:50;10.83;;;8.70;;
22983;SDS011;11658;48.908;9.140;2022-09-25T19:26:17;11.23;;;7.93;;
22983;SDS011;11658;48.908;9.140;2022-09-25T19:28:45;10.57;;;8.97;;
22983;SDS011;11658;48.908;9.140;2022-09-25T19:31:18;10.87;;;8.50;;
22983;SDS011;11658;48.908;9.140;2022-09-25T19:33:45;13.57;;;8.80;;
22983;SDS011;11658;48.908;9.140;2022-09-25T19:36:14;14.87;;;8.77;;
22983;SDS011;11658;48.908;9.140;2022-09-25T19:38:51;11.33;;;8.50;;
22983;SDS011;11658;48.908;9.140;2022-09-25T19:41:19;11.57;;;8.00;;
22983;SDS011;11658;48.908;9.140;2022-09-25T19:43:49;9.53;;;7.40;;
22983;SDS011;11658;48.908;9.140;2022-09-25T19:46:15;9.63;;;8.53;;
22983;SDS011;11658;48.908;9.140;2022-09-25T19:48:42;8.97;;;7.77;;
22983;SDS011;11658;48.908;9.140;2022-09-25T19:51:08;11.40;;;8.97;;
22983;SDS011;11658;48.908;9.140;2022-09-25T19:53:35;9.30;;;8.30;;
22983;SDS011;11658;48.908;9.140;2022-09-25T19:56:02;9.73;;;8.73;;
22983;SDS011;11658;48.908;9.140;2022-09-25T19:58:28;13.70;;;8.63;;
22983;SDS011;11658;48.908;9.140;2022-09-25T20:00:55;9.50;;;8.43;;
22983;SDS011;11658;48.908;9.140;2022-09-25T20:03:22;11.87;;;8.33;;
22983;SDS011;11658;48.908;9.140;2022-09-25T20:05:48;11.37;;;7.97;;
22983;SDS011;11658;48.908;9.140;2022-09-25T20:08:14;12.37;;;8.67;;
22983;SDS011;11658;48.908;9.140;2022-09-25T20:10:39;9.50;;;7.77;;
22983;SDS011;11658;48.908;9.140;2022-09-25T20:13:05;10.83;;;8.37;;
22983;SDS011;11658;48.908;9.140;2022-09-25T20:15:31;9.97;;;7.90;;
22983;SDS011;11658;48.908;9.140;2022-09-25T20:17:57;9.43;;;7.13;;
22983;SDS011;11658;48.908;9.140;2022-09-25T20:20:23;10.33;;;7.60;;
22983;SDS011;11658;48.908;9.140;2022-09-25T20:22:53;10.30;;;7.57;;
22983;SDS011;11658;48.908;9.140;2022-09-25T20:25:20;12.63;;;8.47;;
22983;SDS011;11658;48.908;9.140;2022-09-25T20:27:49;12.67;;;8.00;;
22983;SDS011;11658;48.908;9.140;2022-09-25T20:30:16;8.87;;;7.67;;
22983;SDS011;11658;48.908;9.140;2022-09-25T20:32:42;11.67;;;7.83;;
22983;SDS011;11658;48.908;9.140;2022-09-25T20:35:09;12.73;;;7.80;;
22983;SDS011;11658;48.908;9.140;2022-09-25T20:37:35;9.83;;;7.53;;
22983;SDS011;11658;48.908;9.140;2022-09-25T20:40:01;7.93;;;7.13;;
22983;SDS011;11658;48.908;9.140;2022-09-25T20:42:27;9.50;;;7.67;;
22983;SDS011;11658;48.908;9.140;2022-09-25T20:44:52;10.83;;;7.77;;
22983;SDS011;11658;48.908;9.140;2022-09-25T20:47:19;8.70;;;6.83;;
22983;SDS011;11658;48.908;9.140;2022-09-25T20:49:45;7.90;;;7.10;;
22983;SDS011;11658;48.908;9.140;2022-09-25T20:52:11;10.37;;;7.23;;
22983;SDS011;11658;48.908;9.140;2022-09-25T20:54:38;9.20;;;6.90;;
22983;SDS011;11658;48.908;9.140;2022-09-25T20:57:07;8.17;;;6.63;;
22983;SDS011;11658;48.908;9.140;2022-09-25T20:59:33;8.53;;;6.53;;
